Manbij, Syria
Current Conditions -  °F | °C
As of 4:50 AM on Monday 26 Jan 2015 (Local Time) from LTAJ Reporting Station
Clear Clear  
Wind Chill: 34°   Ceiling: Unl
Heat Index: 39°   Visibility: 6mi
Dew Point: 32°   Wind: 7mph
Humidity: 75%   Direction: 360°N
Pressure: 30.12"   Gusts: NA
Location:  36.54°N, 37.96°E
Report Text: LTAJ 260150Z 36006KT CAVOK 04/00 Q1020 NOSIG
Loading
Personal Weather Stations






























Interactive Weather Map New forecast layout! Learn more

10-Day Weather Forecast

Advertisements
Track Severe Weather on mobile